Time;durP1;ratioP1;P1;durP2;ratioP2;P2;SDS_P1;SDS_P2;PMS_P1;PMS_P2;Temp;Humidity;BMP_temperature;BMP_pressure;BME280_temperature;BME280_humidity;BME280_pressure;Samples;Min_cycle;Max_cycle;Signal;HPM_P1;HPM_P2
2022/11/21 00:00:54;;;;;;;116.35;52.73;;;;;;;-2.44;76.49;99940.59;1790065;79;32545;-80
2022/11/21 00:03:23;;;;;;;115.35;54.30;;;;;;;-2.43;76.40;99950.13;1783022;79;28373;-82
2022/11/21 00:05:49;;;;;;;118.90;53.23;;;;;;;-2.43;76.41;99944.89;1822012;77;25381;-81
2022/11/21 00:08:19;;;;;;;113.42;51.05;;;;;;;-2.42;76.37;99938.67;1815331;77;25832;-81
2022/11/21 00:10:46;;;;;;;124.95;54.73;;;;;;;-2.40;76.28;99938.58;1846069;76;26086;-82
2022/11/21 00:13:16;;;;;;;119.17;53.75;;;;;;;-2.41;76.32;99929.87;1826939;77;25640;-82
2022/11/21 00:15:43;;;;;;;122.82;53.75;;;;;;;-2.39;76.28;99932.36;1802080;78;27598;-80
2022/11/21 00:18:14;;;;;;;118.50;52.50;;;;;;;-2.40;76.24;99935.48;1805381;78;26047;-81
2022/11/21 00:20:39;;;;;;;108.20;50.90;;;;;;;-2.38;75.98;99934.05;1807568;78;25833;-80
2022/11/21 00:23:06;;;;;;;113.00;52.08;;;;;;;-2.41;75.69;99923.31;1821464;77;26395;-80
2022/11/21 00:25:33;;;;;;;121.65;55.38;;;;;;;-2.45;75.50;99923.20;1796298;78;25761;-80
2022/11/21 00:27:59;;;;;;;112.42;52.70;;;;;;;-2.48;75.29;99920.00;1823995;77;28233;-81
2022/11/21 00:30:25;;;;;;;111.72;50.80;;;;;;;-2.52;75.18;99919.38;1812169;77;25274;-80
2022/11/21 00:32:51;;;;;;;110.20;50.65;;;;;;;-2.53;75.13;99919.05;1818442;77;25828;-80
2022/11/21 00:35:18;;;;;;;119.30;52.05;;;;;;;-2.57;75.12;99912.38;1809404;77;25760;-82
2022/11/21 00:37:46;;;;;;;125.85;56.70;;;;;;;-2.59;75.16;99917.37;1831792;77;25819;-81
2022/11/21 00:40:12;;;;;;;127.17;53.85;;;;;;;-2.62;75.42;99914.52;1800996;79;27433;-82
2022/11/21 00:42:39;;;;;;;123.18;56.15;;;;;;;-2.62;75.71;99922.38;1812911;77;26488;-81
2022/11/21 00:45:06;;;;;;;122.15;54.55;;;;;;;-2.63;75.92;99923.32;1785674;78;25916;-80
2022/11/21 00:47:32;;;;;;;125.00;54.03;;;;;;;-2.62;76.07;99926.78;1815136;77;25819;-81
2022/11/21 00:49:58;;;;;;;121.17;53.25;;;;;;;-2.62;76.00;99929.41;1821724;77;25747;-80
2022/11/21 00:52:24;;;;;;;118.57;54.23;;;;;;;-2.67;75.96;99910.09;1808791;78;27999;-81
2022/11/21 00:54:51;;;;;;;126.05;55.33;;;;;;;-2.62;75.89;99918.45;1820242;77;26379;-80
2022/11/21 00:57:17;;;;;;;120.92;55.15;;;;;;;-2.63;75.64;99919.39;1810919;77;25842;-81
2022/11/21 00:59:43;;;;;;;115.10;51.63;;;;;;;-2.66;75.44;99920.95;1820015;78;25838;-80
2022/11/21 01:02:09;;;;;;;110.68;50.63;;;;;;;-2.68;75.33;99916.78;1802345;78;25863;-82
2022/11/21 01:04:37;;;;;;;106.32;50.15;;;;;;;-2.76;75.30;99903.45;1813027;77;27421;-80
2022/11/21 01:07:04;;;;;;;114.45;51.02;;;;;;;-2.76;75.30;99903.45;1819677;77;25718;-81
2022/11/21 01:09:30;;;;;;;116.22;52.05;;;;;;;-2.72;75.23;99908.33;1809411;78;25751;-82
2022/11/21 01:11:56;;;;;;;107.37;51.98;;;;;;;-2.76;75.08;99905.56;1824621;77;25765;-80
2022/11/21 01:14:23;;;;;;;119.75;52.13;;;;;;;-2.76;75.08;99905.56;1792845;79;25856;-80
2022/11/21 01:16:50;;;;;;;113.05;51.88;;;;;;;-2.82;74.98;99903.93;1806936;78;27436;-80
2022/11/21 01:19:16;;;;;;;115.62;51.77;;;;;;;-2.82;74.98;99903.93;1775527;79;25885;-82
2022/11/21 01:21:42;;;;;;;110.68;52.50;;;;;;;-2.84;74.89;99911.89;1800864;78;25792;-81
2022/11/21 01:24:11;;;;;;;116.03;52.23;;;;;;;-2.86;74.92;99905.09;1812914;78;25803;-81
2022/11/21 01:26:38;;;;;;;113.55;50.12;;;;;;;-2.89;74.91;99903.57;1804889;78;26365;-82
2022/11/21 01:29:05;;;;;;;119.70;52.23;;;;;;;-2.89;74.91;99903.57;1798768;78;28648;-82
2022/11/21 01:31:32;;;;;;;115.50;54.30;;;;;;;-2.96;74.80;99902.37;1829028;77;26213;-82
2022/11/21 01:34:00;;;;;;;119.33;54.73;;;;;;;-2.96;74.80;99902.37;1794589;78;26416;-82
2022/11/21 01:36:31;;;;;;;119.65;55.30;;;;;;;-2.98;75.22;99904.27;1815428;77;25853;-81
2022/11/21 01:39:01;;;;;;;123.35;54.73;;;;;;;-3.01;75.15;99897.11;1795246;78;26420;-81
2022/11/21 01:41:43;;;;;;;125.40;54.48;;;;;;;-3.01;75.15;99897.11;1766945;79;27456;-80
2022/11/21 01:44:22;;;;;;;119.00;53.73;;;;;;;-3.01;75.08;99890.55;1811996;77;26478;-82
2022/11/21 01:46:50;;;;;;;120.72;52.90;;;;;;;-3.02;75.03;99896.30;1821893;77;25765;-80
2022/11/21 01:49:30;;;;;;;114.75;51.53;;;;;;;-3.03;75.05;99893.30;1823307;77;26387;-82
2022/11/21 01:52:09;;;;;;;117.42;54.70;;;;;;;-3.03;75.05;99890.69;1820839;77;25746;-81
2022/11/21 01:55:02;;;;;;;124.33;53.95;;;;;;;-3.04;75.11;99888.19;1829038;77;28222;-83
2022/11/21 01:57:38;;;;;;;127.15;55.98;;;;;;;-3.05;75.11;99888.66;1743993;81;25780;-80
2022/11/21 02:00:15;;;;;;;124.30;53.52;;;;;;;-3.07;75.17;99895.80;1812409;77;25823;-81
2022/11/21 02:02:46;;;;;;;123.90;53.30;;;;;;;-3.07;75.16;99886.64;1811550;77;26569;-81
2022/11/21 02:05:20;;;;;;;121.57;53.45;;;;;;;-3.08;75.15;99893.31;1818640;77;26475;-81
2022/11/21 02:07:48;;;;;;;118.90;54.18;;;;;;;-3.09;75.28;99891.63;1789147;78;27425;-83
2022/11/21 02:10:15;;;;;;;120.60;56.10;;;;;;;-3.10;75.49;99902.58;1792565;78;25568;-81
2022/11/21 02:12:49;;;;;;;125.00;53.48;;;;;;;-3.10;75.69;99909.13;1814496;77;26229;-81
2022/11/21 02:15:24;;;;;;;119.22;52.20;;;;;;;-3.12;75.68;99911.88;1817508;78;26605;-80
2022/11/21 02:17:50;;;;;;;110.10;52.75;;;;;;;-3.14;75.75;99907.23;1835286;76;25813;-81
2022/11/21 02:20:20;;;;;;;122.47;53.63;;;;;;;-3.13;75.68;99905.45;1832787;76;27447;-80
2022/11/21 02:22:55;;;;;;;123.07;56.83;;;;;;;-3.14;75.63;99899.84;1840351;76;25981;-80
2022/11/21 02:25:27;;;;;;;120.50;54.93;;;;;;;-3.16;75.32;99890.80;1834574;76;25689;-80
2022/11/21 02:28:00;;;;;;;122.10;52.67;;;;;;;-3.16;75.32;99890.80;1823783;77;25751;-80
2022/11/21 02:30:30;;;;;;;115.03;52.83;;;;;;;-3.19;75.18;99890.20;1793213;79;25910;-80
2022/11/21 02:32:57;;;;;;;134.72;57.93;;;;;;;-3.23;74.99;99885.66;1838345;77;27512;-82
2022/11/21 02:35:23;;;;;;;118.57;53.48;;;;;;;-3.27;74.92;99889.47;1796172;79;26423;-81
2022/11/21 02:38:03;;;;;;;122.87;55.65;;;;;;;-3.38;75.01;99875.54;1808511;77;26133;-80
2022/11/21 02:40:39;;;;;;;115.40;53.60;;;;;;;-3.29;75.03;99890.53;1784353;79;26414;-81
2022/11/21 02:43:22;;;;;;;125.80;54.63;;;;;;;-3.31;74.67;99901.13;1792656;79;25343;-80
2022/11/21 02:45:48;;;;;;;128.27;56.08;;;;;;;-3.37;74.58;99898.98;1791536;78;27434;-80
2022/11/21 02:48:15;;;;;;;121.47;53.13;;;;;;;-3.43;74.49;99898.14;1799700;78;26066;-82
2022/11/21 02:50:45;;;;;;;124.55;54.70;;;;;;;-3.48;74.46;99896.33;1824014;77;25825;-82
2022/11/21 02:53:16;;;;;;;111.03;51.00;;;;;;;-3.49;74.85;99898.61;1836358;77;25797;-81
2022/11/21 02:55:42;;;;;;;118.55;54.10;;;;;;;-3.47;75.22;99898.48;1819079;77;25944;-81
2022/11/21 02:58:10;;;;;;;113.92;53.40;;;;;;;-3.46;75.23;99904.90;1820512;77;27519;-80
2022/11/21 03:00:38;;;;;;;119.57;54.50;;;;;;;-3.44;75.21;99896.92;1806884;77;25811;-82
2022/11/21 03:03:04;;;;;;;118.97;56.40;;;;;;;-3.44;75.09;99899.54;1798039;78;25858;-81
2022/11/21 03:05:32;;;;;;;122.37;57.20;;;;;;;-3.44;75.17;99907.39;1833616;77;26340;-80
2022/11/21 03:07:58;;;;;;;120.92;53.83;;;;;;;-3.42;75.42;99906.83;1795944;78;25620;-81
2022/11/21 03:10:24;;;;;;;117.60;53.02;;;;;;;-3.40;75.64;99912.29;1796127;78;27425;-79
2022/11/21 03:12:59;;;;;;;118.20;54.27;;;;;;;-3.37;75.92;99916.00;1804133;78;25863;-81
2022/11/21 03:15:19;;;;;;;121.15;54.03;;;;;;;-3.35;76.08;99927.19;1829011;77;25653;-81
2022/11/21 03:17:48;;;;;;;121.55;53.90;;;;;;;-3.39;76.40;99928.38;1815588;77;25765;-81
2022/11/21 03:20:14;;;;;;;127.47;56.28;;;;;;;-3.39;76.40;99928.38;1824539;77;25947;-81
2022/11/21 03:22:41;;;;;;;128.32;57.03;;;;;;;-3.40;76.37;99938.97;1814971;78;27475;-80
2022/11/21 03:25:08;;;;;;;125.72;55.40;;;;;;;-3.41;76.57;99929.43;1825733;78;25851;-82
2022/11/21 03:27:34;;;;;;;121.82;53.68;;;;;;;-3.41;76.57;99929.43;1819506;77;25939;-82
2022/11/21 03:30:00;;;;;;;118.10;52.78;;;;;;;-3.44;76.66;99922.63;1840628;77;25931;-81
2022/11/21 03:32:27;;;;;;;127.22;56.05;;;;;;;-3.39;76.89;99919.67;1817729;77;25740;-80
2022/11/21 03:34:53;;;;;;;119.95;55.85;;;;;;;-3.37;76.68;99929.55;1777746;78;27431;-80
2022/11/21 03:37:19;;;;;;;130.15;56.45;;;;;;;-3.36;76.69;99922.08;1797017;78;25921;-81
2022/11/21 03:39:45;;;;;;;123.38;55.58;;;;;;;-3.35;76.70;99923.73;1794878;78;25571;-80
2022/11/21 03:42:12;;;;;;;123.10;54.08;;;;;;;-3.36;76.67;99924.20;1807795;77;25775;-80
2022/11/21 03:44:38;;;;;;;124.80;56.25;;;;;;;-3.35;76.62;99922.42;1791823;78;25325;-82
2022/11/21 03:47:04;;;;;;;123.78;56.53;;;;;;;-3.33;76.53;99925.75;1791288;78;28152;-82
2022/11/21 03:49:31;;;;;;;118.00;53.87;;;;;;;-3.33;76.50;99927.91;1821319;77;26006;-81
2022/11/21 03:51:59;;;;;;;118.50;53.95;;;;;;;-3.32;76.45;99931.37;1818035;78;25808;-82
2022/11/21 03:54:25;;;;;;;123.33;55.75;;;;;;;-3.34;76.17;99921.48;1806474;78;26267;-82
2022/11/21 03:56:51;;;;;;;126.02;55.38;;;;;;;-3.36;75.75;99924.20;1825770;77;25777;-80
2022/11/21 03:59:18;;;;;;;124.27;56.23;;;;;;;-3.41;75.31;99919.80;1809596;77;28243;-80
2022/11/21 04:01:44;;;;;;;126.02;56.60;;;;;;;-3.53;74.68;99912.03;1802971;78;26065;-80
2022/11/21 04:04:10;;;;;;;119.35;54.95;;;;;;;-3.53;74.68;99912.03;1813604;78;26035;-80
2022/11/21 04:06:37;;;;;;;113.90;51.50;;;;;;;-3.58;74.85;99904.98;1819759;78;25841;-81
2022/11/21 04:09:03;;;;;;;127.47;56.18;;;;;;;-3.59;74.99;99907.27;1817908;77;25785;-81
2022/11/21 04:11:29;;;;;;;118.72;52.75;;;;;;;-3.60;75.06;99902.96;1821594;78;27424;-81
2022/11/21 04:13:56;;;;;;;124.95;54.63;;;;;;;-3.61;75.16;99903.42;1787452;78;26298;-81
2022/11/21 04:16:22;;;;;;;121.95;53.42;;;;;;;-3.61;75.29;99895.58;1789345;79;25869;-80
2022/11/21 04:18:48;;;;;;;124.40;52.58;;;;;;;-3.60;75.34;99897.73;1810403;78;25801;-82
2022/11/21 04:21:14;;;;;;;116.80;52.55;;;;;;;-3.62;74.79;99899.63;1803794;78;25297;-80
2022/11/21 04:23:41;;;;;;;117.93;52.58;;;;;;;-3.67;74.47;99896.50;1827695;76;27488;-81
2022/11/21 04:26:07;;;;;;;121.37;55.45;;;;;;;-3.72;74.28;99898.16;1826091;77;25666;-80
2022/11/21 04:28:33;;;;;;;129.87;55.67;;;;;;;-3.75;74.29;99893.63;1819968;77;25695;-82
2022/11/21 04:31:08;;;;;;;122.98;54.13;;;;;;;-3.78;74.21;99890.77;1824893;77;25901;-82
2022/11/21 04:33:34;;;;;;;129.07;56.98;;;;;;;-3.80;74.26;99889.20;1829710;76;25234;-81
2022/11/21 04:36:00;;;;;;;130.43;56.02;;;;;;;-3.82;74.31;99888.02;1824656;76;27431;-82
2022/11/21 04:38:27;;;;;;;121.87;54.70;;;;;;;-3.83;74.35;99892.06;1825548;77;26312;-80
2022/11/21 04:40:54;;;;;;;135.72;58.40;;;;;;;-3.85;74.47;99891.34;1823353;77;26273;-80
2022/11/21 04:43:20;;;;;;;130.80;56.65;;;;;;;-3.92;73.89;99879.19;1816200;77;25733;-81
2022/11/21 04:45:46;;;;;;;131.67;58.25;;;;;;;-3.92;73.89;99879.19;1825864;77;25825;-81
2022/11/21 04:48:12;;;;;;;134.57;59.63;;;;;;;-3.97;73.96;99865.14;1821122;77;28245;-81
2022/11/21 04:50:39;;;;;;;127.90;55.45;;;;;;;-4.01;73.91;99866.31;1824085;77;25676;-81
2022/11/21 04:53:05;;;;;;;132.30;59.20;;;;;;;-4.04;74.03;99866.98;1820138;76;25940;-80
2022/11/21 04:55:31;;;;;;;133.20;56.15;;;;;;;-4.08;74.21;99860.32;1829905;77;25813;-81
2022/11/21 04:57:59;;;;;;;128.45;55.70;;;;;;;-4.12;73.92;99858.41;1819203;77;25882;-81
2022/11/21 05:00:25;;;;;;;123.47;56.02;;;;;;;-4.18;73.53;99856.25;1823884;76;27495;-80
2022/11/21 05:02:52;;;;;;;132.52;60.67;;;;;;;-4.23;73.13;99861.44;1826441;76;25624;-81
2022/11/21 05:05:18;;;;;;;122.58;56.25;;;;;;;-4.29;73.26;99874.50;1821089;77;25818;-82
2022/11/21 05:07:44;;;;;;;130.40;57.40;;;;;;;-4.31;73.44;99886.84;1837117;77;25832;-81
2022/11/21 05:10:11;;;;;;;131.87;58.35;;;;;;;-4.31;73.67;99891.23;1836959;76;25922;-81
2022/11/21 05:15:22;;;;;;;123.45;53.78;;;;;;;-4.31;74.16;99897.30;1831547;76;25761;-82
2022/11/21 05:17:48;;;;;;;126.65;54.10;;;;;;;-4.30;74.79;99895.53;1802241;78;25790;-80
2022/11/21 05:20:15;;;;;;;129.42;54.93;;;;;;;-4.32;75.38;99885.16;1809819;77;25800;-81
2022/11/21 05:22:41;;;;;;;128.25;58.83;;;;;;;-4.31;75.84;99882.92;1816042;77;25326;-81
2022/11/21 05:25:08;;;;;;;120.28;55.88;;;;;;;-4.29;76.06;99892.80;1823503;77;27435;-82
2022/11/21 05:27:34;;;;;;;121.15;54.63;;;;;;;-4.25;76.05;99881.63;1822945;77;26397;-79
2022/11/21 05:30:00;;;;;;;128.68;59.48;;;;;;;-4.23;75.90;99870.59;1830057;77;25784;-80
2022/11/21 05:32:27;;;;;;;147.50;65.22;;;;;;;-4.22;75.85;99874.42;1795800;78;25839;-81
2022/11/21 05:34:53;;;;;;;134.57;63.90;;;;;;;-4.20;75.82;99873.84;1817774;77;25488;-81
2022/11/21 05:37:20;;;;;;;133.10;59.73;;;;;;;-4.20;75.51;99864.69;1820426;77;27422;-79
2022/11/21 05:39:47;;;;;;;135.70;58.90;;;;;;;-4.21;75.30;99870.00;1836078;76;25836;-80
2022/11/21 05:42:13;;;;;;;143.20;60.63;;;;;;;-4.21;75.36;99866.08;1777096;78;25673;-82
2022/11/21 05:44:39;;;;;;;125.87;56.80;;;;;;;-4.20;75.47;99874.30;1805503;78;25985;-81
2022/11/21 05:47:05;;;;;;;135.20;60.45;;;;;;;-4.20;75.41;99864.69;1836182;77;26390;-81
2022/11/21 05:49:32;;;;;;;123.50;55.88;;;;;;;-4.20;75.17;99869.07;1831668;77;28336;-81
2022/11/21 05:51:58;;;;;;;130.00;58.28;;;;;;;-4.23;75.07;99866.20;1820254;76;26573;-81
2022/11/21 05:54:24;;;;;;;116.73;53.60;;;;;;;-4.24;75.08;99859.32;1817468;77;25743;-80
2022/11/21 05:56:50;;;;;;;130.37;57.08;;;;;;;-4.25;75.08;99858.94;1831524;76;25799;-81
2022/11/21 05:59:17;;;;;;;128.70;57.60;;;;;;;-4.25;75.20;99859.41;1782805;78;25883;-81
2022/11/21 06:04:28;;;;;;;132.35;61.75;;;;;;;-4.24;75.37;99850.17;1819852;77;26705;-82
2022/11/21 06:06:54;;;;;;;135.25;59.08;;;;;;;-4.24;75.26;99849.33;1816305;77;25729;-81
2022/11/21 06:09:20;;;;;;;136.65;58.17;;;;;;;-4.25;75.07;99845.03;1833449;76;25889;-82
2022/11/21 06:11:47;;;;;;;135.45;61.10;;;;;;;-4.28;75.03;99847.42;1808273;78;25577;-82
2022/11/21 06:14:13;;;;;;;127.47;58.60;;;;;;;-4.29;75.09;99855.36;1830906;76;27437;-82
2022/11/21 06:16:39;;;;;;;138.88;59.83;;;;;;;-4.27;75.14;99869.15;1836016;76;25308;-80
2022/11/21 06:19:06;;;;;;;125.78;54.83;;;;;;;-4.27;75.26;99879.14;1825058;76;25899;-83
2022/11/21 06:21:33;;;;;;;118.30;53.38;;;;;;;-4.25;75.82;99885.55;1821694;77;25782;-83
2022/11/21 06:24:00;;;;;;;124.05;55.75;;;;;;;-4.25;76.31;99890.78;1822407;77;25799;-80
2022/11/21 06:26:27;;;;;;;121.67;52.55;;;;;;;-4.28;76.71;99890.56;1823396;77;27436;-81
2022/11/21 06:28:53;;;;;;;113.52;51.33;;;;;;;-4.25;77.05;99896.02;1814680;76;25279;-80
2022/11/21 06:31:24;;;;;;;117.17;54.50;;;;;;;-4.22;77.34;99889.27;1818138;77;26512;-79
2022/11/21 06:33:52;;;;;;;;;;;;;;;-4.21;77.52;99891.77;1813111;77;26755;-80
2022/11/21 06:36:19;;;;;;;126.53;51.83;;;;;;;-4.19;77.90;99893.80;1813514;77;25986;-81
2022/11/21 06:38:46;;;;;;;122.33;53.33;;;;;;;-4.20;78.15;99881.68;1815028;77;27425;-80
2022/11/21 06:41:19;;;;;;;120.17;51.88;;;;;;;-4.16;78.37;99879.20;1823951;77;25768;-81
2022/11/21 06:43:46;;;;;;;125.95;53.92;;;;;;;-4.12;78.60;99876.72;1794381;78;26392;-81
2022/11/21 06:46:13;;;;;;;123.60;54.33;;;;;;;-4.06;78.74;99881.97;1820815;77;26563;-80
2022/11/21 06:48:41;;;;;;;117.90;54.08;;;;;;;-3.99;78.91;99885.81;1809922;77;25613;-82
2022/11/21 06:51:18;;;;;;;120.05;52.88;;;;;;;-3.93;79.11;99886.66;1812777;77;27472;-82
2022/11/21 06:53:47;;;;;;;131.97;55.60;;;;;;;-3.87;79.35;99880.16;1848956;76;25789;-80
2022/11/21 06:56:14;;;;;;;129.55;55.52;;;;;;;-3.82;79.59;99889.33;1822294;77;25731;-81
2022/11/21 06:58:41;;;;;;;120.25;53.92;;;;;;;-3.80;79.72;99884.81;1816105;76;25818;-82
2022/11/21 07:01:09;;;;;;;129.27;56.23;;;;;;;-3.77;79.98;99874.13;1826311;77;25912;-80
2022/11/21 07:03:36;;;;;;;128.97;56.02;;;;;;;-3.70;80.21;99867.97;1811075;77;28909;-80
2022/11/21 07:06:03;;;;;;;118.47;54.30;;;;;;;-3.65;80.31;99863.20;1806545;78;26116;-81
2022/11/21 07:08:31;;;;;;;113.88;52.20;;;;;;;-3.63;80.43;99871.30;1831314;77;25739;-82
2022/11/21 07:11:04;;;;;;;122.85;53.90;;;;;;;-3.58;80.62;99869.66;1809189;78;26418;-81
2022/11/21 07:13:31;;;;;;;115.47;50.58;;;;;;;-3.52;80.78;99871.80;1836546;77;26040;-80
2022/11/21 07:16:08;;;;;;;114.00;49.93;;;;;;;-3.48;80.92;99865.39;1823592;78;28260;-81
2022/11/21 07:18:35;;;;;;;131.50;57.20;;;;;;;-3.44;81.10;99861.11;1817155;77;25818;-81
2022/11/21 07:21:06;;;;;;;123.67;51.75;;;;;;;-3.35;81.29;99862.20;1837176;77;25740;-80
2022/11/21 07:23:33;;;;;;;135.32;61.92;;;;;;;-3.29;81.38;99858.64;1826799;77;26568;-80
2022/11/21 07:26:05;;;;;;;120.20;54.83;;;;;;;-3.26;81.50;99851.87;1808221;77;26409;-82
2022/11/21 07:28:33;;;;;;;121.00;53.28;;;;;;;-3.23;81.80;99845.06;1798340;78;27433;-80
2022/11/21 07:31:02;;;;;;;111.15;49.98;;;;;;;-3.23;81.80;99845.06;1819730;77;25745;-83
2022/11/21 07:33:28;;;;;;;120.42;52.38;;;;;;;-3.13;81.75;99864.84;1814727;78;26394;-82
2022/11/21 07:35:56;;;;;;;117.10;55.00;;;;;;;-3.06;81.85;99869.98;1798189;78;25769;-83
2022/11/21 07:38:26;;;;;;;120.15;53.52;;;;;;;-2.98;81.92;99870.69;1813788;77;25727;-83
2022/11/21 07:40:53;;;;;;;114.80;55.50;;;;;;;-2.92;81.97;99866.27;1822273;77;27428;-83
2022/11/21 07:43:19;;;;;;;116.73;50.48;;;;;;;-2.84;82.05;99867.34;1784691;78;26482;-82
2022/11/21 07:45:46;;;;;;;109.97;49.10;;;;;;;-2.68;82.53;99872.22;1812064;77;26392;-80
2022/11/21 07:48:12;;;;;;;122.95;52.95;;;;;;;-2.68;82.53;99872.22;1796365;78;26559;-82
2022/11/21 07:50:39;;;;;;;113.12;52.38;;;;;;;-2.60;82.82;99870.66;1805526;78;25972;-82
2022/11/21 07:53:09;;;;;;;118.37;54.18;;;;;;;-2.55;82.89;99861.97;1793290;78;28238;-80
2022/11/21 07:55:35;;;;;;;113.87;53.30;;;;;;;-2.48;83.05;99864.44;1825249;77;25827;-82
2022/11/21 07:58:06;;;;;;;161.45;72.72;;;;;;;-2.43;83.12;99863.59;1840397;76;25810;-82
2022/11/21 08:00:35;;;;;;;205.98;88.12;;;;;;;-2.34;83.26;99851.54;1829997;76;25822;-82
2022/11/21 08:03:05;;;;;;;155.15;71.20;;;;;;;-2.23;83.66;99831.00;1834385;77;25893;-82
2022/11/21 08:05:41;;;;;;;125.90;58.97;;;;;;;-2.23;83.66;99831.00;1827560;76;27585;-82
2022/11/21 08:08:08;;;;;;;126.12;60.60;;;;;;;-2.10;83.73;99843.00;1828251;76;25913;-81
2022/11/21 08:10:41;;;;;;;120.45;59.90;;;;;;;-2.01;84.32;99840.91;1816978;76;25908;-83
2022/11/21 08:13:08;;;;;;;282.30;128.00;;;;;;;-1.97;84.17;99832.33;1829838;77;26515;-84
2022/11/21 08:15:35;;;;;;;1345.00;650.72;;;;;;;-1.86;84.09;99830.97;1828450;77;25789;-83
2022/11/21 08:18:12;;;;;;;313.40;170.65;;;;;;;-1.80;84.21;99831.30;1817627;77;27433;-81
2022/11/21 08:20:39;;;;;;;165.37;87.57;;;;;;;-1.73;84.26;99827.66;1813686;77;25972;-82
2022/11/21 08:23:06;;;;;;;119.82;57.93;;;;;;;-1.61;84.83;99816.15;1820947;77;26182;-82
2022/11/21 08:25:35;;;;;;;112.92;53.30;;;;;;;-1.61;84.83;99816.15;1818642;77;26925;-82
2022/11/21 08:28:03;;;;;;;102.38;49.27;;;;;;;-1.49;84.70;99826.92;1818810;77;25274;-82
2022/11/21 08:30:30;;;;;;;102.60;47.85;;;;;;;-1.40;84.93;99827.94;1818202;77;28307;-81
2022/11/21 08:33:00;;;;;;;87.33;44.42;;;;;;;-1.32;84.80;99826.33;1817251;77;26366;-83
2022/11/21 08:35:27;;;;;;;88.52;45.58;;;;;;;-1.29;84.93;99830.02;1783732;78;25770;-82
2022/11/21 08:37:57;;;;;;;89.58;42.33;;;;;;;-1.25;85.03;99837.98;1824581;76;25817;-80
2022/11/21 08:40:26;;;;;;;90.83;44.33;;;;;;;-1.19;85.19;99843.19;1831098;77;25594;-81
2022/11/21 08:43:03;;;;;;;85.80;42.45;;;;;;;-1.13;85.39;99845.29;1826522;77;27532;-82
2022/11/21 08:45:30;;;;;;;91.35;40.20;;;;;;;-1.06;85.49;99843.81;1825685;77;25290;-80
2022/11/21 08:47:57;;;;;;;76.53;38.00;;;;;;;-1.00;85.49;99836.23;1832592;77;25780;-83
2022/11/21 08:50:23;;;;;;;78.17;38.78;;;;;;;-0.93;85.46;99838.69;1833605;77;25758;-81
2022/11/21 08:52:50;;;;;;;78.55;39.53;;;;;;;-0.88;85.46;99831.72;1822418;77;25759;-82
2022/11/21 08:55:16;;;;;;;84.17;39.30;;;;;;;-0.83;85.35;99834.29;1827766;77;27400;-83
2022/11/21 08:57:42;;;;;;;73.80;36.70;;;;;;;-0.76;85.26;99831.96;1830063;77;25823;-83
2022/11/21 09:00:15;;;;;;;82.80;41.88;;;;;;;-0.70;85.28;99841.94;1824709;76;25834;-82
2022/11/21 09:02:39;;;;;;;100.53;54.58;;;;;;;-0.60;85.41;99838.03;1830502;77;25846;-82
2022/11/21 09:05:07;;;;;;;79.10;38.15;;;;;;;-0.54;85.22;99829.12;1838703;77;26485;-82
2022/11/21 09:07:33;;;;;;;73.85;36.75;;;;;;;-0.51;84.85;99820.95;1834805;77;27370;-83
2022/11/21 09:09:59;;;;;;;70.92;34.43;;;;;;;-0.50;84.74;99820.00;1839037;76;25872;-83
2022/11/21 09:12:26;;;;;;;76.20;43.35;;;;;;;-0.53;84.56;99808.89;1833332;77;25771;-82
2022/11/21 09:20:22;;;;;;;76.92;37.25;;;;;;;-0.42;84.33;99817.98;1821580;77;28391;-82
2022/11/21 09:22:48;;;;;;;83.92;41.63;;;;;;;-0.40;84.20;99812.10;1823358;77;25751;-81
2022/11/21 09:25:16;;;;;;;82.35;42.75;;;;;;;-0.38;84.33;99808.38;1792384;77;25761;-81
2022/11/21 09:27:42;;;;;;;86.30;43.98;;;;;;;-0.33;84.44;99810.59;1799710;77;27288;-82
2022/11/21 09:30:09;;;;;;;82.42;45.00;;;;;;;-0.29;84.58;99797.03;1833057;77;25798;-81
2022/11/21 09:32:36;;;;;;;86.05;40.20;;;;;;;-0.25;84.33;99787.89;1818818;77;29043;-80
2022/11/21 09:35:03;;;;;;;76.33;37.95;;;;;;;-0.22;84.36;99787.63;1816407;77;26238;-81
2022/11/21 09:37:39;;;;;;;71.70;37.17;;;;;;;-0.19;84.45;99789.13;1834925;76;25334;-92
2022/11/21 09:40:15;;;;;;;79.75;39.80;;;;;;;-0.16;84.50;99781.80;1804544;77;25993;-87
2022/11/21 09:43:34;;;;;;;102.35;50.03;;;;;;;-0.14;84.49;99784.29;1816521;77;25817;-90
2022/11/21 09:46:14;;;;;;;73.85;38.25;;;;;;;-0.13;84.32;99780.70;1812786;77;27464;-84
2022/11/21 09:49:04;;;;;;;80.00;40.10;;;;;;;-0.14;84.08;99777.23;1832394;76;25870;-87
2022/11/21 09:51:31;;;;;;;76.12;40.60;;;;;;;-0.14;84.15;99778.55;1826095;77;25607;-90
2022/11/21 09:54:08;;;;;;;87.33;44.40;;;;;;;-0.14;84.03;99777.23;1830463;77;26298;-84
2022/11/21 09:56:40;;;;;;;88.03;46.40;;;;;;;-0.10;84.20;99776.45;1827834;77;25804;-83
2022/11/21 09:59:24;;;;;;;97.05;47.70;;;;;;;-0.08;84.17;99767.94;1822472;77;28248;-82
2022/11/21 10:01:56;;;;;;;76.97;38.00;;;;;;;-0.08;83.96;99771.41;1689129;79;25776;-90
2022/11/21 10:04:23;;;;;;;85.77;40.08;;;;;;;-0.08;83.74;99770.09;1798781;78;25829;-84
2022/11/21 10:07:12;;;;;;;82.37;42.90;;;;;;;-0.04;83.80;99765.37;1823916;76;25856;-83
2022/11/21 10:10:16;;;;;;;76.80;40.20;;;;;;;-0.02;83.74;99764.73;1793084;78;25826;-83
2022/11/21 10:13:06;;;;;;;83.15;40.38;;;;;;;0.02;83.74;99764.00;1822763;77;27473;-83
2022/11/21 10:15:56;;;;;;;83.47;40.58;;;;;;;0.05;83.83;99765.85;1816143;77;26354;-83
2022/11/21 10:18:58;;;;;;;98.87;42.80;;;;;;;0.12;83.67;99764.80;1817894;77;26312;-82
2022/11/21 10:21:38;;;;;;;92.25;45.52;;;;;;;0.14;83.63;99761.06;1819169;77;26000;-83
2022/11/21 10:24:16;;;;;;;83.62;42.30;;;;;;;0.18;83.60;99760.28;1823536;77;25845;-84
2022/11/21 10:26:56;;;;;;;79.30;39.80;;;;;;;0.20;83.55;99753.91;1827851;77;27439;-83
2022/11/21 10:29:39;;;;;;;88.55;44.88;;;;;;;0.25;83.49;99753.48;1806433;77;25865;-84
2022/11/21 10:32:23;;;;;;;87.82;40.38;;;;;;;0.29;83.98;99750.91;1785686;77;25335;-87
2022/11/21 10:35:01;;;;;;;90.72;43.35;;;;;;;0.35;83.69;99751.17;1791390;78;26342;-84
2022/11/21 10:37:35;;;;;;;85.80;43.15;;;;;;;0.38;83.60;99748.27;1832842;76;25497;-88
2022/11/21 10:46:24;;;;;;;78.35;41.13;;;;;;;0.50;83.28;99732.63;1733340;78;25927;-88
2022/11/21 10:48:59;;;;;;;80.92;40.58;;;;;;;0.56;83.19;99727.25;1788893;79;26139;-83
2022/11/21 10:51:39;;;;;;;97.95;53.78;;;;;;;0.59;83.27;99717.75;1804420;78;25301;-82
2022/11/21 10:57:30;;;;;;;79.07;38.95;;;;;;;0.72;83.28;99719.57;1763292;79;25896;-90
2022/11/21 11:00:21;;;;;;;74.65;34.23;;;;;;;0.78;83.33;99715.03;1736870;79;25348;-92
2022/11/21 11:03:05;;;;;;;64.67;33.42;;;;;;;0.86;83.33;99719.08;1799876;77;25841;-89
2022/11/21 11:05:44;;;;;;;66.57;33.05;;;;;;;0.93;83.17;99708.30;1828214;77;25556;-91
2022/11/21 11:08:15;;;;;;;71.70;35.98;;;;;;;0.99;83.19;99698.47;1802963;78;27139;-92
2022/11/21 11:11:03;;;;;;;65.67;33.13;;;;;;;1.04;83.18;99696.23;1790456;78;25768;-90
2022/11/21 11:13:34;;;;;;;56.73;30.77;;;;;;;1.08;82.76;99692.80;1851887;77;25284;-91
2022/11/21 11:16:14;;;;;;;65.15;34.08;;;;;;;1.11;82.69;99687.23;1798130;78;26530;-86
2022/11/21 11:18:51;;;;;;;71.17;37.30;;;;;;;1.14;82.63;99685.60;1787370;78;25922;-90
2022/11/21 11:21:26;;;;;;;61.70;31.73;;;;;;;1.18;82.65;99682.52;1811577;78;27424;-89
2022/11/21 11:24:25;;;;;;;;;;;;;;;;;;;;;
2022/11/21 11:27:06;;;;;;;;;;;;;;;;;;;;;
2022/11/21 11:29:37;;;;;;;;;;;;;;;;;;;;;
2022/11/21 11:32:14;;;;;;;83.92;43.02;;;;;;;1.32;82.36;99686.46;1683266;84;25477;-86
2022/11/21 11:34:47;;;;;;;72.37;37.05;;;;;;;1.37;82.42;99688.98;1789320;80;27522;-87
2022/11/21 11:37:40;;;;;;;64.12;33.95;;;;;;;1.39;82.36;99681.73;1792085;79;25809;-86
2022/11/21 11:40:35;;;;;;;63.78;34.90;;;;;;;1.44;82.27;99690.04;1775264;78;25720;-88
2022/11/21 11:49:31;;;;;;;67.35;35.50;;;;;;;1.57;82.43;99676.46;1752303;77;27564;-86
2022/11/21 11:52:01;;;;;;;67.03;33.85;;;;;;;1.61;82.60;99676.49;1819957;78;25819;-87
2022/11/21 11:54:36;;;;;;;73.47;38.10;;;;;;;1.65;82.54;99681.00;1823855;77;32469;-90
2022/11/21 11:57:03;;;;;;;69.60;35.25;;;;;;;1.71;82.72;99679.06;1815064;77;25763;-90